Cape Newenham Lrrs Airport
PAEH : now visible

Airfield :











YOU CAN JOIN US ON...

 
LOGIN :

Register | Disclaimer

   EN    FR    IT 

 









Legend :    VFR   Marginal VFR   IFR   Intensive IFR   Very Intensive IFR
Visi :
Ceiling :
>= 8 km
>= 3000ft
5 to 8 km
1000 to 3000 ft
1500m to 5 km
500 to 1000 ft
800 to 1500m
200 to 500 ft
< 800m
< 200 ft
Symbols :   Thunderstorms  Fog  Heavy snow  Heavy precipitations  Wind > 20 kt






- Airport Elevation : 541 ft
- IATA code : EHM


PAEH - Cape Newenham Lrrs

CURRENT METAR :
  • 010634Z AUTO 18023G38KT 10SM OVC005 14/13 A2988 RMK AO2 SLP117

EXPIRED METARs :
  • 010555Z AUTO 17022G30KT 2 1/2SM -RA BR OVC004 14/13 A2988 RMK AO2 PK WND 18030/0553 RAB0355 SLP117 P0006 60023 T01430130 10146 20119 56006
  • 010534Z AUTO 17023G30KT 2SM -RA BR OVC005 14/12 A2987 RMK AO2 SLP115
  • 010513Z AUTO 18017KT 2 1/2SM RA BR FEW006 OVC018 13/12 A2988 RMK AO2 SLP120
  • 010433Z AUTO 17017G30KT 120V180 4SM -RA SCT005 OVC026 13/11 A2988 RMK AO2 PK WND 15031/0416 SLP119
  • 010413Z AUTO 17021KT 4SM -RA FEW006 OVC032 13/11 A2988 RMK AO2 PK WND 15028/0401 SLP118
  • 010355Z AUTO 16021G30KT 5SM -RA OVC006 13/11 A2987 RMK AO2 PK WND 14030/0352 RAB0249 SLP116 P0003 T01310113

Expired Forecast.
PAZA FIR / North America



MET'MAP, your aeronautical weather chart ! - Copyright ORBIFLY December 2007 - Disclaimer

ORBIFLY MET'MAP TEAM :

Programming & Development : Alexandra Zaïnal
Concept & original design : Baudouin d'Aumeries
Assistance for programming : Marc-Olivier Méhu
Technical & hardware support : Manuel Goepfert

Contact : metmap@orbifly.com




SOURCES & CREDITS :

   NOAA       Earth
Advisory